Time,TemperatureF,DewpointF,PressureIn,WindDirection,WindDirectionDegrees,WindSpeedMPH,WindSpeedGustMPH,Humidity,HourlyPrecipIn,Conditions,Clouds,dailyrainin,SoftwareType,DateUTC
2013-02-06 00:00:00,54.2,42.7,28.94,NE,45,2.7,3.4,65,0.00,,,0.00,WUHU216HW,2013-02-06 07:00:00,
2013-02-06 00:05:00,54.4,43.2,28.94,East,90,1.8,3.6,66,0.00,,,0.00,WUHU216HW,2013-02-06 07:05:00,
2013-02-06 00:10:00,54.4,42.9,28.94,East,90,2.2,3.6,65,0.00,,,0.00,WUHU216HW,2013-02-06 07:10:00,
2013-02-06 00:15:00,54.4,43.2,28.94,NE,45,3.1,4.0,66,0.00,,,0.00,WUHU216HW,2013-02-06 07:15:00,
2013-02-06 00:20:00,54.2,43.0,28.94,ENE,68,4.7,4.7,66,0.00,,,0.00,WUHU216HW,2013-02-06 07:20:00,
2013-02-06 00:25:00,54.2,43.0,28.94,North,0,2.5,4.7,66,0.00,,,0.00,WUHU216HW,2013-02-06 07:25:00,
2013-02-06 00:30:00,54.2,43.0,28.94,NE,45,2.2,4.7,66,0.00,,,0.00,WUHU216HW,2013-02-06 07:30:00,
2013-02-06 00:35:00,54.0,42.8,28.94,NNE,23,2.2,4.0,66,0.00,,,0.00,WUHU216HW,2013-02-06 07:35:00,
2013-02-06 00:40:00,54.2,42.7,28.94,ENE,68,2.5,4.0,65,0.00,,,0.00,WUHU216HW,2013-02-06 07:40:00,
2013-02-06 00:45:00,54.2,42.7,28.94,ENE,68,3.1,4.3,65,0.00,,,0.00,WUHU216HW,2013-02-06 07:45:00,
2013-02-06 00:50:00,54.0,42.8,28.94,NE,45,1.8,4.3,66,0.00,,,0.00,WUHU216HW,2013-02-06 07:50:00,
2013-02-06 00:55:00,53.8,43.1,28.94,NE,45,4.5,4.5,67,0.00,,,0.00,WUHU216HW,2013-02-06 07:55:00,
2013-02-06 01:00:00,53.6,42.9,28.94,NE,45,1.3,4.5,67,0.00,,,0.00,WUHU216HW,2013-02-06 08:00:00,
2013-02-06 01:05:00,53.6,43.8,28.94,ENE,68,1.1,4.0,69,0.00,,,0.00,WUHU216HW,2013-02-06 08:05:00,
2013-02-06 01:10:00,53.5,43.1,28.94,NNE,23,1.8,3.4,68,0.00,,,0.00,WUHU216HW,2013-02-06 08:10:00,
2013-02-06 01:15:00,53.3,43.4,28.94,North,0,1.1,3.4,69,0.00,,,0.00,WUHU216HW,2013-02-06 08:15:00,
2013-02-06 01:20:00,53.1,42.9,28.94,ENE,68,1.1,2.7,68,0.00,,,0.00,WUHU216HW,2013-02-06 08:20:00,
2013-02-06 01:25:00,52.9,43.0,28.95,NNW,338,0.2,2.2,69,0.00,,,0.00,WUHU216HW,2013-02-06 08:25:00,
2013-02-06 01:30:00,52.6,42.3,28.95,WSW,248,0.4,1.8,68,0.00,,,0.00,WUHU216HW,2013-02-06 08:30:00,
2013-02-06 01:35:00,52.0,42.2,28.95,WSW,248,1.1,1.1,69,0.00,,,0.00,WUHU216HW,2013-02-06 08:35:00,
2013-02-06 01:41:00,51.3,41.1,28.95,West,270,1.1,1.3,68,0.00,,,0.00,WUHU216HW,2013-02-06 08:41:00,
2013-02-06 01:46:00,50.8,40.6,28.95,West,270,0.0,1.3,68,0.00,,,0.00,WUHU216HW,2013-02-06 08:46:00,
2013-02-06 01:51:00,50.4,41.0,28.95,WNW,293,0.0,1.3,70,0.00,,,0.00,WUHU216HW,2013-02-06 08:51:00,
2013-02-06 01:56:00,50.2,41.2,28.95,WNW,293,0.0,0.4,71,0.00,,,0.00,WUHU216HW,2013-02-06 08:56:00,
2013-02-06 02:01:00,50.0,41.1,28.95,North,0,0.4,0.7,71,0.00,,,0.00,WUHU216HW,2013-02-06 09:01:00,
2013-02-06 02:06:00,49.9,41.2,28.95,NE,45,0.0,0.7,72,0.00,,,0.00,WUHU216HW,2013-02-06 09:06:00,
2013-02-06 02:11:00,49.7,40.7,28.95,ENE,68,0.0,0.4,71,0.00,,,0.00,WUHU216HW,2013-02-06 09:11:00,
2013-02-06 02:16:00,49.5,40.9,28.95,ENE,68,0.4,0.7,72,0.00,,,0.00,WUHU216HW,2013-02-06 09:16:00,
2013-02-06 02:21:00,49.5,40.9,28.95,NE,45,1.3,1.8,72,0.00,,,0.00,WUHU216HW,2013-02-06 09:21:00,
2013-02-06 02:26:00,49.7,41.3,28.95,NNE,23,2.2,2.5,73,0.00,,,0.00,WUHU216HW,2013-02-06 09:26:00,
2013-02-06 02:31:00,49.9,41.5,28.94,ENE,68,2.5,2.7,73,0.00,,,0.00,WUHU216HW,2013-02-06 09:31:00,
2013-02-06 02:36:00,50.4,42.0,28.94,NE,45,3.1,3.6,73,0.00,,,0.00,WUHU216HW,2013-02-06 09:36:00,
2013-02-06 02:41:00,51.1,42.5,28.94,NNE,23,2.9,4.5,72,0.00,,,0.00,WUHU216HW,2013-02-06 09:41:00,
2013-02-06 02:46:00,51.5,42.5,28.94,ESE,113,1.8,4.5,71,0.00,,,0.00,WUHU216HW,2013-02-06 09:46:00,
2013-02-06 02:51:00,51.5,42.1,28.94,NNE,23,2.0,2.9,70,0.00,,,0.00,WUHU216HW,2013-02-06 09:51:00,
2013-02-06 02:56:00,51.5,42.1,28.94,NNE,23,1.1,2.9,70,0.00,,,0.00,WUHU216HW,2013-02-06 09:56:00,
2013-02-06 03:01:00,51.7,42.3,28.94,North,0,1.3,2.9,70,0.00,,,0.00,WUHU216HW,2013-02-06 10:01:00,
2013-02-06 03:06:00,51.8,42.5,28.94,North,0,2.5,3.4,70,0.00,,,0.00,WUHU216HW,2013-02-06 10:06:00,
2013-02-06 03:11:00,52.2,42.9,28.94,ENE,68,2.5,4.0,70,0.00,,,0.00,WUHU216HW,2013-02-06 10:11:00,
2013-02-06 03:16:00,52.2,42.9,28.94,NE,45,3.1,4.0,70,0.00,,,0.00,WUHU216HW,2013-02-06 10:16:00,
2013-02-06 03:21:00,52.4,42.9,28.94,NNE,23,1.1,4.7,70,0.00,,,0.00,WUHU216HW,2013-02-06 10:21:00,
2013-02-06 03:26:00,52.4,42.9,28.94,ENE,68,1.8,4.7,70,0.00,,,0.00,WUHU216HW,2013-02-06 10:26:00,
2013-02-06 03:31:00,52.6,42.8,28.94,NNE,23,1.8,4.0,69,0.00,,,0.00,WUHU216HW,2013-02-06 10:31:00,
2013-02-06 03:36:00,52.6,42.8,28.94,North,0,2.7,4.0,69,0.00,,,0.00,WUHU216HW,2013-02-06 10:36:00,
2013-02-06 03:41:00,52.6,42.8,28.94,North,0,1.1,4.0,69,0.00,,,0.00,WUHU216HW,2013-02-06 10:41:00,
2013-02-06 03:46:00,52.6,42.8,28.93,NNE,23,3.1,4.0,69,0.00,,,0.00,WUHU216HW,2013-02-06 10:46:00,
2013-02-06 03:51:00,52.6,42.8,28.94,SSE,158,1.3,5.1,69,0.00,,,0.00,WUHU216HW,2013-02-06 10:51:00,
2013-02-06 03:56:00,52.4,42.6,28.94,NNE,23,2.5,5.1,69,0.00,,,0.00,WUHU216HW,2013-02-06 10:56:00,
2013-02-06 04:01:00,52.2,42.4,28.94,ESE,113,1.3,4.5,69,0.00,,,0.00,WUHU216HW,2013-02-06 11:01:00,
2013-02-06 04:06:00,52.0,42.2,28.94,SE,135,0.2,4.3,69,0.00,,,0.00,WUHU216HW,2013-02-06 11:06:00,
2013-02-06 04:11:00,51.7,41.5,28.94,East,90,0.4,2.5,68,0.00,,,0.00,WUHU216HW,2013-02-06 11:11:00,
2013-02-06 04:16:00,51.5,41.3,28.94,East,90,1.1,2.5,68,0.00,,,0.00,WUHU216HW,2013-02-06 11:16:00,
2013-02-06 04:21:00,51.3,41.1,28.94,NE,45,1.1,1.8,68,0.00,,,0.00,WUHU216HW,2013-02-06 11:21:00,
2013-02-06 04:26:00,51.3,41.1,28.93,NNE,23,0.9,2.5,68,0.00,,,0.00,WUHU216HW,2013-02-06 11:26:00,
2013-02-06 04:31:00,51.5,41.3,28.93,NNE,23,2.0,3.4,68,0.00,,,0.00,WUHU216HW,2013-02-06 11:31:00,
2013-02-06 04:36:00,51.8,41.7,28.93,NE,45,2.5,3.8,68,0.00,,,0.00,WUHU216HW,2013-02-06 11:36:00,
2013-02-06 04:41:00,52.2,41.9,28.94,ESE,113,1.8,4.5,68,0.00,,,0.00,WUHU216HW,2013-02-06 11:41:00,
2013-02-06 04:46:00,52.2,41.9,28.94,ENE,68,1.6,4.5,68,0.00,,,0.00,WUHU216HW,2013-02-06 11:46:00,
2013-02-06 04:51:00,52.2,41.9,28.93,ENE,68,1.6,2.7,68,0.00,,,0.00,WUHU216HW,2013-02-06 11:51:00,
2013-02-06 04:56:00,52.4,42.1,28.93,NNE,23,1.1,2.5,68,0.00,,,0.00,WUHU216HW,2013-02-06 11:56:00,
2013-02-06 05:01:00,52.2,41.9,28.94,NNE,23,0.4,2.5,68,0.00,,,0.00,WUHU216HW,2013-02-06 12:01:00,
2013-02-06 05:06:00,52.0,41.4,28.94,NNE,23,1.3,2.0,67,0.00,,,0.00,WUHU216HW,2013-02-06 12:06:00,
2013-02-06 05:11:00,52.0,41.9,28.93,NNE,23,2.0,2.9,68,0.00,,,0.00,WUHU216HW,2013-02-06 12:11:00,
2013-02-06 05:16:00,52.2,41.6,28.93,NNE,23,2.5,2.9,67,0.00,,,0.00,WUHU216HW,2013-02-06 12:16:00,
2013-02-06 05:21:00,52.2,41.1,28.93,ENE,68,1.3,2.9,66,0.00,,,0.00,WUHU216HW,2013-02-06 12:21:00,
2013-02-06 05:26:00,52.2,41.1,28.94,NNE,23,1.6,3.1,66,0.00,,,0.00,WUHU216HW,2013-02-06 12:26:00,
2013-02-06 05:31:00,52.2,41.6,28.93,NNE,23,1.3,3.1,67,0.00,,,0.00,WUHU216HW,2013-02-06 12:31:00,
2013-02-06 05:36:00,51.8,41.2,28.94,NE,45,2.0,3.4,67,0.00,,,0.00,WUHU216HW,2013-02-06 12:36:00,
2013-02-06 05:41:00,51.7,41.5,28.94,NNE,23,2.0,3.4,68,0.00,,,0.00,WUHU216HW,2013-02-06 12:41:00,
2013-02-06 05:46:00,51.5,41.3,28.94,NNE,23,1.3,3.4,68,0.00,,,0.00,WUHU216HW,2013-02-06 12:46:00,
2013-02-06 05:51:00,51.5,40.9,28.94,ESE,113,1.6,3.4,67,0.00,,,0.00,WUHU216HW,2013-02-06 12:51:00,
2013-02-06 05:56:00,51.5,40.9,28.94,NE,45,1.1,4.0,67,0.00,,,0.00,WUHU216HW,2013-02-06 12:56:00,
2013-02-06 06:01:00,51.5,41.3,28.94,NE,45,3.1,4.0,68,0.00,,,0.00,WUHU216HW,2013-02-06 13:01:00,
2013-02-06 06:06:00,51.5,41.7,28.94,NNE,23,2.5,3.1,69,0.00,,,0.00,WUHU216HW,2013-02-06 13:06:00,
2013-02-06 06:11:00,51.5,41.7,28.94,NNE,23,1.8,3.1,69,0.00,,,0.00,WUHU216HW,2013-02-06 13:11:00,
2013-02-06 06:16:00,51.1,41.0,28.94,NNE,23,0.4,2.5,68,0.00,,,0.00,WUHU216HW,2013-02-06 13:16:00,
2013-02-06 06:21:00,51.1,41.3,28.94,NNE,23,0.9,1.8,69,0.00,,,0.00,WUHU216HW,2013-02-06 13:21:00,
2013-02-06 06:27:00,50.8,41.8,28.95,NNE,23,1.1,1.3,71,0.00,,,0.00,WUHU216HW,2013-02-06 13:27:00,
2013-02-06 06:32:00,50.8,41.8,28.94,NNE,23,2.2,3.8,71,0.00,,,0.00,WUHU216HW,2013-02-06 13:32:00,
2013-02-06 06:37:00,50.9,41.6,28.95,North,0,0.9,3.8,70,0.00,,,0.00,WUHU216HW,2013-02-06 13:37:00,
2013-02-06 06:42:00,50.9,41.2,28.95,NE,45,0.2,2.2,69,0.00,,,0.00,WUHU216HW,2013-02-06 13:42:00,
2013-02-06 06:47:00,50.9,41.6,28.95,NNE,23,1.8,2.5,70,0.00,,,0.00,WUHU216HW,2013-02-06 13:47:00,
2013-02-06 06:51:00,50.9,41.2,28.95,NNE,23,1.8,2.5,69,0.00,,,0.00,WUHU216HW,2013-02-06 13:51:00,
2013-02-06 06:56:00,50.9,41.2,28.95,NNE,23,0.7,2.5,69,0.00,,,0.00,WUHU216HW,2013-02-06 13:56:00,
2013-02-06 07:01:00,50.9,41.2,28.95,NNE,23,1.3,2.5,69,0.00,,,0.00,WUHU216HW,2013-02-06 14:01:00,
2013-02-06 07:06:00,50.9,41.2,28.95,NE,45,1.1,2.2,69,0.00,,,0.00,WUHU216HW,2013-02-06 14:06:00,
2013-02-06 07:11:00,50.9,41.2,28.95,North,0,2.0,2.5,69,0.00,,,0.00,WUHU216HW,2013-02-06 14:11:00,
2013-02-06 07:16:00,50.9,41.6,28.95,NE,45,2.5,2.7,70,0.00,,,0.00,WUHU216HW,2013-02-06 14:16:00,
2013-02-06 07:22:00,51.1,42.1,28.95,ENE,68,2.0,3.4,71,0.00,,,0.00,WUHU216HW,2013-02-06 14:22:00,
2013-02-06 07:27:00,51.1,42.1,28.95,NE,45,1.8,3.4,71,0.00,,,0.00,WUHU216HW,2013-02-06 14:27:00,
2013-02-06 07:32:00,51.3,42.3,28.95,NNE,23,2.5,2.9,71,0.00,,,0.00,WUHU216HW,2013-02-06 14:32:00,
2013-02-06 07:37:00,51.5,42.1,28.95,NE,45,2.5,3.4,70,0.00,,,0.00,WUHU216HW,2013-02-06 14:37:00,
2013-02-06 07:42:00,51.5,42.1,28.95,NNW,338,1.3,3.8,70,0.00,,,0.00,WUHU216HW,2013-02-06 14:42:00,
2013-02-06 07:47:00,51.5,42.1,28.95,NE,45,0.9,3.8,70,0.00,,,0.00,WUHU216HW,2013-02-06 14:47:00,
2013-02-06 07:52:00,51.5,41.7,28.95,NNE,23,2.7,3.1,69,0.00,,,0.00,WUHU216HW,2013-02-06 14:52:00,
2013-02-06 07:56:00,51.8,42.0,28.95,NE,45,2.0,3.1,69,0.00,,,0.00,WUHU216HW,2013-02-06 14:56:00,
2013-02-06 08:02:00,52.0,42.2,28.96,NNE,23,1.3,3.1,69,0.00,,,0.00,WUHU216HW,2013-02-06 15:02:00,
2013-02-06 08:07:00,52.2,42.4,28.96,East,90,3.1,3.1,69,0.00,,,0.00,WUHU216HW,2013-02-06 15:07:00,
2013-02-06 08:12:00,52.2,42.4,28.96,NNE,23,1.8,3.1,69,0.00,,,0.00,WUHU216HW,2013-02-06 15:12:00,
2013-02-06 08:17:00,52.4,42.6,28.96,NNE,23,1.8,3.8,69,0.00,,,0.00,WUHU216HW,2013-02-06 15:17:00,
2013-02-06 08:22:00,52.7,42.9,28.96,NE,45,2.5,3.8,69,0.00,,,0.00,WUHU216HW,2013-02-06 15:22:00,
2013-02-06 08:27:00,53.1,43.2,28.97,NNE,23,2.5,2.9,69,0.00,,,0.00,WUHU216HW,2013-02-06 15:27:00,
2013-02-06 08:32:00,53.8,43.5,28.96,NE,45,1.3,3.4,68,0.00,,,0.00,WUHU216HW,2013-02-06 15:32:00,
2013-02-06 08:37:00,54.4,43.7,28.97,NNE,23,2.5,4.0,67,0.00,,,0.00,WUHU216HW,2013-02-06 15:37:00,
2013-02-06 08:42:00,54.5,43.4,28.97,NE,45,0.7,4.0,66,0.00,,,0.00,WUHU216HW,2013-02-06 15:42:00,
2013-02-06 08:47:00,54.9,43.3,28.97,NE,45,2.9,3.6,65,0.00,,,0.00,WUHU216HW,2013-02-06 15:47:00,
2013-02-06 08:52:00,55.1,43.1,28.97,East,90,3.6,4.0,64,0.00,,,0.00,WUHU216HW,2013-02-06 15:52:00,
2013-02-06 08:57:00,55.3,43.3,28.97,NE,45,1.1,4.0,64,0.00,,,0.00,WUHU216HW,2013-02-06 15:57:00,
2013-02-06 09:02:00,55.6,43.2,28.97,NNW,338,2.9,3.6,63,0.00,,,0.00,WUHU216HW,2013-02-06 16:02:00,
2013-02-06 09:07:00,56.2,43.3,28.97,NNE,23,1.1,5.6,62,0.00,,,0.00,WUHU216HW,2013-02-06 16:07:00,
2013-02-06 09:12:00,56.5,43.7,28.97,NE,45,1.8,5.6,62,0.00,,,0.00,WUHU216HW,2013-02-06 16:12:00,
2013-02-06 09:17:00,57.2,43.6,28.98,NNE,23,3.6,4.5,60,0.00,,,0.00,WUHU216HW,2013-02-06 16:17:00,
2013-02-06 09:22:00,57.2,43.6,28.98,NNE,23,1.6,4.5,60,0.00,,,0.00,WUHU216HW,2013-02-06 16:22:00,
2013-02-06 09:27:00,57.6,43.9,28.98,East,90,1.1,4.0,60,0.00,,,0.00,WUHU216HW,2013-02-06 16:27:00,
2013-02-06 09:32:00,58.0,43.7,28.98,NNE,23,2.7,2.7,59,0.00,,,0.00,WUHU216HW,2013-02-06 16:32:00,
2013-02-06 09:37:00,58.3,43.6,28.98,NNE,23,2.5,3.4,58,0.00,,,0.00,WUHU216HW,2013-02-06 16:37:00,
2013-02-06 09:42:00,59.0,44.3,28.98,NNE,23,1.6,3.6,58,0.00,,,0.00,WUHU216HW,2013-02-06 16:42:00,
2013-02-06 09:47:00,59.4,44.7,28.98,NNE,23,1.1,3.6,58,0.00,,,0.00,WUHU216HW,2013-02-06 16:47:00,
2013-02-06 09:52:00,59.9,44.2,28.99,NE,45,0.4,3.4,56,0.00,,,0.00,WUHU216HW,2013-02-06 16:52:00,
2013-02-06 09:57:00,60.3,44.0,28.99,NNE,23,0.4,3.4,55,0.00,,,0.00,WUHU216HW,2013-02-06 16:57:00,
2013-02-06 10:02:00,60.3,44.6,28.99,East,90,1.1,2.7,56,0.00,,,0.00,WUHU216HW,2013-02-06 17:02:00,
2013-02-06 10:07:00,60.3,44.0,28.99,ENE,68,0.7,3.1,55,0.00,,,0.00,WUHU216HW,2013-02-06 17:07:00,
2013-02-06 10:12:00,60.1,43.8,28.99,NNE,23,0.2,3.1,55,0.00,,,0.00,WUHU216HW,2013-02-06 17:12:00,
2013-02-06 10:17:00,59.9,44.2,28.99,ENE,68,0.4,1.1,56,0.00,,,0.00,WUHU216HW,2013-02-06 17:17:00,
2013-02-06 10:22:00,60.3,44.6,28.99,ESE,113,2.2,2.5,56,0.00,,,0.00,WUHU216HW,2013-02-06 17:22:00,
2013-02-06 10:27:00,60.8,44.6,28.99,ESE,113,1.8,2.5,55,0.00,,,0.00,WUHU216HW,2013-02-06 17:27:00,
2013-02-06 10:32:00,61.2,44.4,28.99,NNW,338,0.4,2.2,54,0.00,,,0.00,WUHU216HW,2013-02-06 17:32:00,
2013-02-06 10:37:00,61.6,44.2,28.99,ESE,113,0.7,2.0,53,0.00,,,0.00,WUHU216HW,2013-02-06 17:37:00,
2013-02-06 10:42:00,61.9,44.6,29.00,SE,135,1.1,2.0,53,0.00,,,0.00,WUHU216HW,2013-02-06 17:42:00,
2013-02-06 10:47:00,62.3,44.9,29.00,SE,135,1.1,1.8,53,0.00,,,0.00,WUHU216HW,2013-02-06 17:47:00,
2013-02-06 10:52:00,62.8,44.4,29.00,SW,225,1.8,2.0,51,0.00,,,0.00,WUHU216HW,2013-02-06 17:52:00,
2013-02-06 10:57:00,63.2,44.7,29.00,NE,45,1.1,2.9,51,0.00,,,0.00,WUHU216HW,2013-02-06 17:57:00,
2013-02-06 11:02:00,63.5,44.0,29.00,North,0,0.4,2.9,49,0.00,,,0.00,WUHU216HW,2013-02-06 18:02:00,
2013-02-06 11:07:00,63.5,44.0,29.00,NE,45,0.4,2.5,49,0.00,,,0.00,WUHU216HW,2013-02-06 18:07:00,
2013-02-06 11:12:00,63.7,44.1,29.00,ESE,113,0.4,2.5,49,0.00,,,0.00,WUHU216HW,2013-02-06 18:12:00,
2013-02-06 11:17:00,64.4,45.4,28.99,ESE,113,0.9,3.1,50,0.00,,,0.00,WUHU216HW,2013-02-06 18:17:00,
2013-02-06 11:22:00,65.2,45.6,28.99,SSE,158,2.2,3.8,49,0.00,,,0.00,WUHU216HW,2013-02-06 18:22:00,
2013-02-06 11:27:00,65.5,45.3,28.99,SSE,158,1.8,3.8,48,0.00,,,0.00,WUHU216HW,2013-02-06 18:27:00,
2013-02-06 11:32:00,65.7,45.5,29.00,East,90,1.1,3.4,48,0.00,,,0.00,WUHU216HW,2013-02-06 18:32:00,
2013-02-06 11:37:00,66.2,44.8,28.99,SSW,203,2.5,3.6,46,0.00,,,0.00,WUHU216HW,2013-02-06 18:37:00,
2013-02-06 11:42:00,66.8,45.9,28.99,SSE,158,1.1,3.6,47,0.00,,,0.00,WUHU216HW,2013-02-06 18:42:00,
2013-02-06 11:47:00,67.5,45.9,28.99,SE,135,1.6,2.9,46,0.00,,,0.00,WUHU216HW,2013-02-06 18:47:00,
2013-02-06 11:52:00,67.7,44.9,28.99,ENE,68,3.4,3.4,44,0.00,,,0.00,WUHU216HW,2013-02-06 18:52:00,
2013-02-06 11:57:00,67.9,45.1,28.99,ESE,113,2.5,4.0,44,0.00,,,0.00,WUHU216HW,2013-02-06 18:57:00,
2013-02-06 12:02:00,68.4,45.5,28.99,SSE,158,2.0,4.0,44,0.00,,,0.00,WUHU216HW,2013-02-06 19:02:00,
2013-02-06 12:07:00,68.8,45.3,28.99,WSW,248,0.4,3.4,43,0.00,,,0.00,WUHU216HW,2013-02-06 19:07:00,
2013-02-06 12:12:00,68.6,45.1,28.98,SE,135,1.6,2.7,43,0.00,,,0.00,WUHU216HW,2013-02-06 19:12:00,
2013-02-06 12:17:00,68.6,45.1,28.98,ESE,113,0.4,2.2,43,0.00,,,0.00,WUHU216HW,2013-02-06 19:17:00,
2013-02-06 12:22:00,68.4,44.9,28.98,SSW,203,1.8,3.4,43,0.00,,,0.00,WUHU216HW,2013-02-06 19:22:00,
2013-02-06 12:27:00,68.6,45.1,28.97,SSW,203,0.4,3.4,43,0.00,,,0.00,WUHU216HW,2013-02-06 19:27:00,
2013-02-06 12:32:00,69.1,45.0,28.98,SE,135,1.8,4.3,42,0.00,,,0.00,WUHU216HW,2013-02-06 19:32:00,
2013-02-06 12:37:00,69.1,45.0,28.97,SSE,158,1.3,4.3,42,0.00,,,0.00,WUHU216HW,2013-02-06 19:37:00,
2013-02-06 12:42:00,69.1,46.2,28.97,SE,135,2.0,2.5,44,0.00,,,0.00,WUHU216HW,2013-02-06 19:42:00,
2013-02-06 12:47:00,69.1,45.6,28.97,ESE,113,2.9,3.4,43,0.00,,,0.00,WUHU216HW,2013-02-06 19:47:00,
2013-02-06 12:52:00,69.5,45.9,28.97,West,270,1.8,3.4,43,0.00,,,0.00,WUHU216HW,2013-02-06 19:52:00,
2013-02-06 12:57:00,70.2,46.0,28.97,NE,45,1.1,4.0,42,0.00,,,0.00,WUHU216HW,2013-02-06 19:57:00,
2013-02-06 13:02:00,70.7,46.4,28.97,SSE,158,2.7,4.0,42,0.00,,,0.00,WUHU216HW,2013-02-06 20:02:00,
2013-02-06 13:07:00,71.1,46.2,28.97,ESE,113,2.9,3.8,41,0.00,,,0.00,WUHU216HW,2013-02-06 20:07:00,
2013-02-06 13:12:00,70.9,45.5,28.96,SSW,203,1.8,3.1,40,0.00,,,0.00,WUHU216HW,2013-02-06 20:12:00,
2013-02-06 13:17:00,70.9,45.5,28.96,West,270,2.5,4.0,40,0.00,,,0.00,WUHU216HW,2013-02-06 20:17:00,
2013-02-06 13:22:00,70.6,45.7,28.96,SW,225,1.3,4.7,41,0.00,,,0.00,WUHU216HW,2013-02-06 20:22:00,
2013-02-06 13:27:00,70.7,46.4,28.96,ESE,113,1.1,4.7,42,0.00,,,0.00,WUHU216HW,2013-02-06 20:27:00,
2013-02-06 13:32:00,71.3,46.4,28.96,ENE,68,1.6,3.4,41,0.00,,,0.00,WUHU216HW,2013-02-06 20:32:00,
2013-02-06 13:37:00,71.1,46.2,28.96,South,180,1.8,3.1,41,0.00,,,0.00,WUHU216HW,2013-02-06 20:37:00,
2013-02-06 13:42:00,70.7,45.9,28.96,NE,45,2.0,3.1,41,0.00,,,0.00,WUHU216HW,2013-02-06 20:42:00,
2013-02-06 13:47:00,70.9,46.0,28.95,South,180,0.9,3.8,41,0.00,,,0.00,WUHU216HW,2013-02-06 20:47:00,
2013-02-06 13:52:00,70.6,45.7,28.95,WSW,248,1.1,3.8,41,0.00,,,0.00,WUHU216HW,2013-02-06 20:52:00,
2013-02-06 13:57:00,70.2,45.4,28.95,WSW,248,1.1,2.5,41,0.00,,,0.00,WUHU216HW,2013-02-06 20:57:00,
2013-02-06 14:03:00,70.0,45.8,28.95,SE,135,1.1,2.7,42,0.00,,,0.00,WUHU216HW,2013-02-06 21:03:00,
2013-02-06 14:08:00,70.6,45.7,28.95,WSW,248,1.3,2.9,41,0.00,,,0.00,WUHU216HW,2013-02-06 21:08:00,
2013-02-06 14:13:00,70.9,46.0,28.94,SSW,203,1.8,3.6,41,0.00,,,0.00,WUHU216HW,2013-02-06 21:13:00,
2013-02-06 14:18:00,70.9,45.5,28.94,WSW,248,2.7,3.6,40,0.00,,,0.00,WUHU216HW,2013-02-06 21:18:00,
2013-02-06 14:23:00,71.3,46.4,28.94,East,90,1.6,3.6,41,0.00,,,0.00,WUHU216HW,2013-02-06 21:23:00,
2013-02-06 14:28:00,71.6,46.1,28.94,SSW,203,0.7,3.6,40,0.00,,,0.00,WUHU216HW,2013-02-06 21:28:00,
2013-02-06 14:33:00,71.5,45.9,28.94,NW,315,0.2,3.4,40,0.00,,,0.00,WUHU216HW,2013-02-06 21:33:00,
2013-02-06 14:38:00,71.6,46.1,28.94,SSW,203,4.5,4.5,40,0.00,,,0.00,WUHU216HW,2013-02-06 21:38:00,
2013-02-06 14:43:00,72.4,46.7,28.94,SSE,158,2.2,4.5,40,0.00,,,0.00,WUHU216HW,2013-02-06 21:43:00,
2013-02-06 14:48:00,72.4,46.0,28.94,SE,135,0.4,4.5,39,0.00,,,0.00,WUHU216HW,2013-02-06 21:48:00,
2013-02-06 14:53:00,72.5,46.2,28.94,WSW,248,4.0,4.5,39,0.00,,,0.00,WUHU216HW,2013-02-06 21:53:00,
2013-02-06 14:58:00,72.5,45.4,28.94,SSW,203,1.1,4.5,38,0.00,,,0.00,WUHU216HW,2013-02-06 21:58:00,
2013-02-06 15:03:00,72.4,45.3,28.94,SSW,203,4.3,4.3,38,0.00,,,0.00,WUHU216HW,2013-02-06 22:03:00,
2013-02-06 15:08:00,72.5,45.4,28.94,South,180,3.1,4.5,38,0.00,,,0.00,WUHU216HW,2013-02-06 22:08:00,
2013-02-06 15:13:00,72.5,45.4,28.94,SW,225,3.4,4.5,38,0.00,,,0.00,WUHU216HW,2013-02-06 22:13:00,
2013-02-06 15:18:00,72.7,46.3,28.94,SSE,158,1.1,4.3,39,0.00,,,0.00,WUHU216HW,2013-02-06 22:18:00,
2013-02-06 15:23:00,72.7,45.5,28.94,SW,225,3.6,4.0,38,0.00,,,0.00,WUHU216HW,2013-02-06 22:23:00,
2013-02-06 15:28:00,72.9,45.7,28.94,SE,135,2.5,4.0,38,0.00,,,0.00,WUHU216HW,2013-02-06 22:28:00,
2013-02-06 15:33:00,72.9,46.4,28.94,SW,225,1.8,4.0,39,0.00,,,0.00,WUHU216HW,2013-02-06 22:33:00,
2013-02-06 15:38:00,72.9,45.7,28.94,SSW,203,2.2,5.6,38,0.00,,,0.00,WUHU216HW,2013-02-06 22:38:00,
2013-02-06 15:43:00,72.9,45.7,28.94,SSE,158,2.9,5.6,38,0.00,,,0.00,WUHU216HW,2013-02-06 22:43:00,
2013-02-06 15:48:00,72.9,45.7,28.94,WSW,248,4.3,5.4,38,0.00,,,0.00,WUHU216HW,2013-02-06 22:48:00,
2013-02-06 15:53:00,72.9,45.7,28.94,SW,225,1.6,6.9,38,0.00,,,0.00,WUHU216HW,2013-02-06 22:53:00,
2013-02-06 15:58:00,72.5,46.2,28.94,WSW,248,3.8,6.9,39,0.00,,,0.00,WUHU216HW,2013-02-06 22:58:00,
2013-02-06 16:03:00,72.4,46.0,28.94,SSE,158,3.4,5.6,39,0.00,,,0.00,WUHU216HW,2013-02-06 23:03:00,
2013-02-06 16:08:00,72.4,46.0,28.94,West,270,2.2,5.1,39,0.00,,,0.00,WUHU216HW,2013-02-06 23:08:00,
2013-02-06 16:13:00,72.4,46.0,28.94,SSW,203,1.8,4.7,39,0.00,,,0.00,WUHU216HW,2013-02-06 23:13:00,
2013-02-06 16:18:00,72.4,46.0,28.94,South,180,2.9,4.9,39,0.00,,,0.00,WUHU216HW,2013-02-06 23:18:00,
2013-02-06 16:23:00,72.4,46.0,28.94,ESE,113,1.3,4.9,39,0.00,,,0.00,WUHU216HW,2013-02-06 23:23:00,
2013-02-06 16:28:00,72.4,46.0,28.95,WSW,248,2.5,5.6,39,0.00,,,0.00,WUHU216HW,2013-02-06 23:28:00,
2013-02-06 16:33:00,72.4,46.0,28.95,SE,135,2.5,5.6,39,0.00,,,0.00,WUHU216HW,2013-02-06 23:33:00,
2013-02-06 16:38:00,72.2,45.8,28.94,South,180,1.1,4.0,39,0.00,,,0.00,WUHU216HW,2013-02-06 23:38:00,
2013-02-06 16:43:00,72.0,44.9,28.95,WSW,248,3.8,4.0,38,0.00,,,0.00,WUHU216HW,2013-02-06 23:43:00,
2013-02-06 16:48:00,71.8,45.6,28.95,SW,225,1.1,3.8,39,0.00,,,0.00,WUHU216HW,2013-02-06 23:48:00,
2013-02-06 16:53:00,71.6,45.4,28.95,West,270,1.3,3.8,39,0.00,,,0.00,WUHU216HW,2013-02-06 23:53:00,
2013-02-06 16:58:00,71.8,45.6,28.95,SSW,203,3.1,3.4,39,0.00,,,0.00,WUHU216HW,2013-02-06 23:58:00,
2013-02-06 17:03:00,71.6,45.4,28.95,SSE,158,1.8,3.4,39,0.00,,,0.00,WUHU216HW,2013-02-07 00:03:00,
2013-02-06 17:08:00,71.5,45.2,28.96,SSE,158,1.6,3.4,39,0.00,,,0.00,WUHU216HW,2013-02-07 00:08:00,
2013-02-06 17:13:00,71.1,44.8,28.95,SSE,158,1.8,4.0,39,0.00,,,0.00,WUHU216HW,2013-02-07 00:13:00,
2013-02-06 17:18:00,70.9,44.7,28.96,South,180,4.7,4.9,39,0.00,,,0.00,WUHU216HW,2013-02-07 00:18:00,
2013-02-06 17:23:00,70.7,45.3,28.95,ESE,113,4.7,6.5,40,0.00,,,0.00,WUHU216HW,2013-02-07 00:23:00,
2013-02-06 17:28:00,70.6,45.1,28.95,SW,225,3.4,6.5,40,0.00,,,0.00,WUHU216HW,2013-02-07 00:28:00,
2013-02-06 17:33:00,70.4,44.9,28.96,WSW,248,2.5,4.9,40,0.00,,,0.00,WUHU216HW,2013-02-07 00:33:00,
2013-02-06 17:38:00,70.2,44.8,28.96,WSW,248,1.1,4.7,40,0.00,,,0.00,WUHU216HW,2013-02-07 00:38:00,
2013-02-06 17:43:00,69.8,44.5,28.96,SE,135,0.9,3.6,40,0.00,,,0.00,WUHU216HW,2013-02-07 00:43:00,
2013-02-06 17:48:00,69.5,44.7,28.96,SSW,203,2.5,4.9,41,0.00,,,0.00,WUHU216HW,2013-02-07 00:48:00,
2013-02-06 17:53:00,69.3,44.6,28.96,SW,225,3.4,4.9,41,0.00,,,0.00,WUHU216HW,2013-02-07 00:53:00,
2013-02-06 17:58:00,69.1,45.0,28.96,SSW,203,1.8,4.9,42,0.00,,,0.00,WUHU216HW,2013-02-07 00:58:00,
2013-02-06 18:03:00,68.8,44.6,28.97,South,180,1.6,4.9,42,0.00,,,0.00,WUHU216HW,2013-02-07 01:03:00,
2013-02-06 18:08:00,68.4,44.4,28.97,SW,225,0.9,4.0,42,0.00,,,0.00,WUHU216HW,2013-02-07 01:08:00,
2013-02-06 18:13:00,67.9,43.8,28.97,SSW,203,2.9,3.1,42,0.00,,,0.00,WUHU216HW,2013-02-07 01:13:00,
2013-02-06 18:18:00,67.3,44.0,28.97,South,180,1.1,3.4,43,0.00,,,0.00,WUHU216HW,2013-02-07 01:18:00,
2013-02-06 18:23:00,67.0,43.7,28.97,SSW,203,1.8,3.4,43,0.00,,,0.00,WUHU216HW,2013-02-07 01:23:00,
2013-02-06 18:28:00,66.6,43.9,28.97,SE,135,0.9,2.2,44,0.00,,,0.00,WUHU216HW,2013-02-07 01:28:00,
2013-02-06 18:34:00,66.1,44.0,28.97,SSE,158,1.1,1.8,45,0.00,,,0.00,WUHU216HW,2013-02-07 01:34:00,
2013-02-06 18:39:00,65.9,43.8,28.97,SSE,158,0.9,2.7,45,0.00,,,0.00,WUHU216HW,2013-02-07 01:39:00,
2013-02-06 18:44:00,65.5,43.5,28.97,ESE,113,0.4,2.7,45,0.00,,,0.00,WUHU216HW,2013-02-07 01:44:00,
2013-02-06 18:50:00,65.2,43.2,28.97,South,180,0.7,1.8,45,0.00,,,0.00,WUHU216HW,2013-02-07 01:50:00,
2013-02-06 18:55:00,64.6,43.2,28.97,SW,225,0.4,1.1,46,0.00,,,0.00,WUHU216HW,2013-02-07 01:55:00,
2013-02-06 19:00:00,64.1,43.3,28.98,South,180,0.9,1.1,47,0.00,,,0.00,WUHU216HW,2013-02-07 02:00:00,
2013-02-06 19:05:00,63.7,43.0,28.98,SSE,158,0.4,1.1,47,0.00,,,0.00,WUHU216HW,2013-02-07 02:05:00,
2013-02-06 19:10:00,63.5,43.4,28.98,South,180,0.4,1.1,48,0.00,,,0.00,WUHU216HW,2013-02-07 02:10:00,
2013-02-06 19:15:00,63.4,43.2,28.98,SSW,203,0.4,1.1,48,0.00,,,0.00,WUHU216HW,2013-02-07 02:15:00,
2013-02-06 19:20:00,63.0,42.9,28.98,SSE,158,0.0,0.9,48,0.00,,,0.00,WUHU216HW,2013-02-07 02:20:00,
2013-02-06 19:25:00,63.0,42.9,28.98,South,180,0.4,0.4,48,0.00,,,0.00,WUHU216HW,2013-02-07 02:25:00,
2013-02-06 19:30:00,62.5,43.0,28.98,South,180,0.0,0.9,49,0.00,,,0.00,WUHU216HW,2013-02-07 02:30:00,
2013-02-06 19:35:00,62.3,42.8,28.98,SSW,203,0.4,0.9,49,0.00,,,0.00,WUHU216HW,2013-02-07 02:35:00,
2013-02-06 19:40:00,62.1,43.3,28.99,SSW,203,0.0,0.7,50,0.00,,,0.00,WUHU216HW,2013-02-07 02:40:00,
2013-02-06 19:45:00,61.9,43.1,28.99,SSW,203,0.0,0.7,50,0.00,,,0.00,WUHU216HW,2013-02-07 02:45:00,
2013-02-06 19:50:00,61.7,42.9,28.99,SSE,158,0.4,0.7,50,0.00,,,0.00,WUHU216HW,2013-02-07 02:50:00,
2013-02-06 19:55:00,61.6,43.3,28.99,SSE,158,0.0,0.7,51,0.00,,,0.00,WUHU216HW,2013-02-07 02:55:00,
2013-02-06 20:00:00,61.4,43.1,28.99,SSW,203,0.4,0.4,51,0.00,,,0.00,WUHU216HW,2013-02-07 03:00:00,
2013-02-06 20:05:00,61.0,42.8,28.99,South,180,0.0,0.4,51,0.00,,,0.00,WUHU216HW,2013-02-07 03:05:00,
2013-02-06 20:10:00,60.7,42.9,28.99,South,180,0.0,0.4,52,0.00,,,0.00,WUHU216HW,2013-02-07 03:10:00,
2013-02-06 20:15:00,60.3,42.6,28.99,South,180,0.0,0.0,52,0.00,,,0.00,WUHU216HW,2013-02-07 03:15:00,
2013-02-06 20:20:00,59.9,42.3,28.99,South,180,0.0,0.0,52,0.00,,,0.00,WUHU216HW,2013-02-07 03:20:00,
2013-02-06 20:25:00,59.4,42.2,28.99,South,180,0.0,0.0,53,0.00,,,0.00,WUHU216HW,2013-02-07 03:25:00,
2013-02-06 20:30:00,59.0,42.4,29.00,SW,225,0.2,0.7,54,0.00,,,0.00,WUHU216HW,2013-02-07 03:30:00,
2013-02-06 20:35:00,58.7,42.5,28.99,SW,225,0.4,1.1,55,0.00,,,0.00,WUHU216HW,2013-02-07 03:35:00,
2013-02-06 20:40:00,58.7,42.5,28.99,WSW,248,1.6,1.6,55,0.00,,,0.00,WUHU216HW,2013-02-07 03:40:00,
2013-02-06 20:45:00,58.5,43.3,29.00,WSW,248,0.2,2.5,57,0.00,,,0.00,WUHU216HW,2013-02-07 03:45:00,
2013-02-06 20:50:00,58.7,43.9,29.00,NW,315,0.0,2.5,58,0.00,,,0.00,WUHU216HW,2013-02-07 03:50:00,
2013-02-06 20:55:00,58.5,43.7,29.00,NNE,23,1.1,1.1,58,0.00,,,0.00,WUHU216HW,2013-02-07 03:55:00,
2013-02-06 21:00:00,58.5,44.7,29.00,NE,45,2.5,2.5,60,0.00,,,0.00,WUHU216HW,2013-02-07 04:00:00,
2013-02-06 21:05:00,58.5,44.7,29.01,NE,45,1.1,2.9,60,0.00,,,0.00,WUHU216HW,2013-02-07 04:05:00,
2013-02-06 21:10:00,58.5,44.7,29.01,NE,45,1.1,3.4,60,0.00,,,0.00,WUHU216HW,2013-02-07 04:10:00,
2013-02-06 21:15:00,58.7,44.4,29.01,NE,45,2.2,3.4,59,0.00,,,0.00,WUHU216HW,2013-02-07 04:15:00,
2013-02-06 21:20:00,59.0,44.3,29.01,ENE,68,1.8,3.1,58,0.00,,,0.00,WUHU216HW,2013-02-07 04:20:00,
2013-02-06 21:25:00,58.9,44.1,29.01,NNW,338,0.0,2.2,58,0.00,,,0.00,WUHU216HW,2013-02-07 04:25:00,
2013-02-06 21:30:00,58.5,43.7,29.01,NE,45,0.0,1.8,58,0.00,,,0.00,WUHU216HW,2013-02-07 04:30:00,
2013-02-06 21:35:00,58.1,43.5,29.01,NNE,23,0.9,0.9,58,0.00,,,0.00,WUHU216HW,2013-02-07 04:35:00,
2013-02-06 21:40:00,58.0,43.3,29.01,North,0,0.0,0.9,58,0.00,,,0.00,WUHU216HW,2013-02-07 04:40:00,
2013-02-06 21:45:00,57.4,42.8,29.02,WSW,248,0.4,0.9,58,0.00,,,0.00,WUHU216HW,2013-02-07 04:45:00,
2013-02-06 21:50:00,56.9,43.2,29.02,WNW,293,0.9,1.8,60,0.00,,,0.00,WUHU216HW,2013-02-07 04:50:00,
2013-02-06 21:55:00,56.7,43.4,29.02,NW,315,0.7,1.8,61,0.00,,,0.00,WUHU216HW,2013-02-07 04:55:00,
2013-02-06 22:00:00,56.7,43.8,29.02,NW,315,1.1,1.3,62,0.00,,,0.00,WUHU216HW,2013-02-07 05:00:00,
2013-02-06 22:01:00,56.7,43.8,29.02,NW,315,0.4,1.3,62,0.00,,,0.00,WUHU216HW,2013-02-07 05:01:00,
2013-02-06 22:06:00,56.9,44.0,29.02,NW,315,0.2,1.3,62,0.00,,,0.00,WUHU216HW,2013-02-07 05:06:00,
2013-02-06 22:11:00,56.7,43.8,29.02,NW,315,0.4,1.1,62,0.00,,,0.00,WUHU216HW,2013-02-07 05:11:00,
2013-02-06 22:16:00,56.5,43.7,29.02,NNW,338,0.0,0.9,62,0.00,,,0.00,WUHU216HW,2013-02-07 05:16:00,
2013-02-06 22:21:00,56.2,43.3,29.02,North,0,0.0,0.4,62,0.00,,,0.00,WUHU216HW,2013-02-07 05:21:00,
2013-02-06 22:26:00,55.8,42.9,29.02,North,0,0.0,0.9,62,0.00,,,0.00,WUHU216HW,2013-02-07 05:26:00,
2013-02-06 22:31:00,55.4,43.0,29.03,WNW,293,0.0,0.9,63,0.00,,,0.00,WUHU216HW,2013-02-07 05:31:00,
2013-02-06 22:36:00,55.1,43.1,29.02,WSW,248,0.0,0.0,64,0.00,,,0.00,WUHU216HW,2013-02-07 05:36:00,
2013-02-06 22:41:00,54.7,42.8,29.02,SSE,158,0.0,0.4,64,0.00,,,0.00,WUHU216HW,2013-02-07 05:41:00,
2013-02-06 22:46:00,54.5,42.6,29.03,SSW,203,0.0,0.7,64,0.00,,,0.00,WUHU216HW,2013-02-07 05:46:00,
2013-02-06 22:51:00,54.4,43.2,29.02,SSE,158,0.0,0.7,66,0.00,,,0.00,WUHU216HW,2013-02-07 05:51:00,
2013-02-06 22:56:00,54.4,42.4,29.03,SSW,203,0.0,0.4,64,0.00,,,0.00,WUHU216HW,2013-02-07 05:56:00,
2013-02-06 23:01:00,54.0,42.5,29.03,WNW,293,0.7,0.7,65,0.00,,,0.00,WUHU216HW,2013-02-07 06:01:00,
2013-02-06 23:06:00,53.8,42.3,29.03,NNW,338,0.0,0.7,65,0.00,,,0.00,WUHU216HW,2013-02-07 06:06:00,
2013-02-06 23:11:00,53.8,43.9,29.03,North,0,1.1,2.2,69,0.00,,,0.00,WUHU216HW,2013-02-07 06:11:00,
2013-02-06 23:15:00,53.8,43.5,29.03,NNW,338,0.7,2.2,68,0.00,,,0.00,WUHU216HW,2013-02-07 06:15:00,
2013-02-06 23:20:00,53.8,43.1,29.03,WNW,293,0.9,0.9,67,0.00,,,0.00,WUHU216HW,2013-02-07 06:20:00,
2013-02-06 23:25:00,53.6,42.9,29.04,NW,315,0.7,1.3,67,0.00,,,0.00,WUHU216HW,2013-02-07 06:25:00,
2013-02-06 23:31:00,53.3,42.6,29.03,NNW,338,0.0,1.3,67,0.00,,,0.00,WUHU216HW,2013-02-07 06:31:00,
2013-02-06 23:36:00,52.9,43.0,29.04,NNE,23,0.4,1.1,69,0.00,,,0.00,WUHU216HW,2013-02-07 06:36:00,
2013-02-06 23:41:00,52.6,42.3,29.04,NE,45,0.7,1.1,68,0.00,,,0.00,WUHU216HW,2013-02-07 06:41:00,
2013-02-06 23:46:00,52.6,43.1,29.04,WNW,293,0.7,1.1,70,0.00,,,0.00,WUHU216HW,2013-02-07 06:46:00,
2013-02-06 23:51:00,52.6,43.1,29.04,NNW,338,0.0,0.7,70,0.00,,,0.00,WUHU216HW,2013-02-07 06:51:00,
2013-02-06 23:56:00,52.4,43.3,29.04,North,0,0.9,1.1,71,0.00,,,0.00,WUHU216HW,2013-02-07 06:56:00,